Merle K (Mudhole) Smith Airport Cordova US
ICAO: PACV
IATA:
Category: Medium
Scheduled Services:

Elevation: 54 ft
TransAlt. 18000 ft.

Airport Communications:
ANCHORAGE APP/DEP:133.6
ASOS:134.8
CTAF:123.6
JUNEAU RDO:122.2

PACV Zoom In..

Runways:

(A) RW 09 length 7500 ft width 150 ft
---- / hdg 95

(B) RW 16 length 1899 ft width 30 ft
---- / hdg 162

(C) RW 27 length 7500 ft width 150 ft
ILS 110.70 / hdg 275

(D) RW 34 length 1899 ft width 30 ft
---- / hdg 342

Location; PACV
Day. 22 / Time. 03.53 Zulu
* Altimeter: 29.37
* Temperature: 03° c. 37.4°f.
* Wind from: 080° Speed 06 kn.
Dewpoint: 00° c.
Visibility: 10 Statute Miles.
Clouds: Broken 3400 ft.
Clouds: Overcast 4400 ft.

PACV 220353Z 08006KT 10SM BKN034 OVC044 03/00 A2937 RMK AO2 SLP945 T00330000


Wind From 080°
Speed 06 kn.

jpsM music video
CHECK IT OUT

jpsM - It Moves..

 
jpsmedia.com for Web Design  worldairports.se 2018   terms of use